sensor_id;sensor_type;location;lat;lon;timestamp;P1;durP1;ratioP1;P2;durP2;ratioP2
23670;SDS011;12012;51.998;7.614;2023-04-28T00:01:41;10.35;;;4.15;;
23670;SDS011;12012;51.998;7.614;2023-04-28T00:04:06;5.75;;;3.90;;
23670;SDS011;12012;51.998;7.614;2023-04-28T00:06:32;6.13;;;3.88;;
23670;SDS011;12012;51.998;7.614;2023-04-28T00:08:58;5.40;;;3.95;;
23670;SDS011;12012;51.998;7.614;2023-04-28T00:11:23;6.88;;;4.43;;
23670;SDS011;12012;51.998;7.614;2023-04-28T00:13:49;5.40;;;3.60;;
23670;SDS011;12012;51.998;7.614;2023-04-28T00:16:15;5.65;;;4.30;;
23670;SDS011;12012;51.998;7.614;2023-04-28T00:18:41;5.68;;;4.10;;
23670;SDS011;12012;51.998;7.614;2023-04-28T00:21:07;7.57;;;3.95;;
23670;SDS011;12012;51.998;7.614;2023-04-28T00:23:32;5.68;;;3.63;;
23670;SDS011;12012;51.998;7.614;2023-04-28T00:25:58;5.65;;;3.67;;
23670;SDS011;12012;51.998;7.614;2023-04-28T00:28:23;9.45;;;3.60;;
23670;SDS011;12012;51.998;7.614;2023-04-28T00:30:49;4.45;;;3.45;;
23670;SDS011;12012;51.998;7.614;2023-04-28T00:33:15;8.00;;;4.93;;
23670;SDS011;12012;51.998;7.614;2023-04-28T00:35:40;7.70;;;4.20;;
23670;SDS011;12012;51.998;7.614;2023-04-28T00:38:06;4.45;;;3.75;;
23670;SDS011;12012;51.998;7.614;2023-04-28T00:40:35;5.93;;;3.72;;
23670;SDS011;12012;51.998;7.614;2023-04-28T00:43:02;10.55;;;4.85;;
23670;SDS011;12012;51.998;7.614;2023-04-28T00:45:28;6.25;;;3.47;;
23670;SDS011;12012;51.998;7.614;2023-04-28T00:47:54;5.05;;;3.03;;
23670;SDS011;12012;51.998;7.614;2023-04-28T00:50:20;5.35;;;3.67;;
23670;SDS011;12012;51.998;7.614;2023-04-28T00:52:47;5.20;;;3.67;;
23670;SDS011;12012;51.998;7.614;2023-04-28T00:55:14;5.95;;;4.15;;
23670;SDS011;12012;51.998;7.614;2023-04-28T00:57:40;4.75;;;3.70;;
23670;SDS011;12012;51.998;7.614;2023-04-28T01:00:06;6.35;;;3.97;;
23670;SDS011;12012;51.998;7.614;2023-04-28T01:02:34;7.18;;;3.78;;
23670;SDS011;12012;51.998;7.614;2023-04-28T01:05:00;8.88;;;4.47;;
23670;SDS011;12012;51.998;7.614;2023-04-28T01:07:26;6.03;;;4.10;;
23670;SDS011;12012;51.998;7.614;2023-04-28T01:09:52;4.90;;;3.53;;
23670;SDS011;12012;51.998;7.614;2023-04-28T01:12:18;6.63;;;3.88;;
23670;SDS011;12012;51.998;7.614;2023-04-28T01:14:44;6.80;;;3.72;;
23670;SDS011;12012;51.998;7.614;2023-04-28T01:17:10;9.13;;;4.65;;
23670;SDS011;12012;51.998;7.614;2023-04-28T01:19:36;7.55;;;4.00;;
23670;SDS011;12012;51.998;7.614;2023-04-28T01:22:01;7.88;;;4.20;;
23670;SDS011;12012;51.998;7.614;2023-04-28T01:24:28;4.43;;;3.78;;
23670;SDS011;12012;51.998;7.614;2023-04-28T01:26:54;6.15;;;3.90;;
23670;SDS011;12012;51.998;7.614;2023-04-28T01:29:19;9.13;;;4.63;;
23670;SDS011;12012;51.998;7.614;2023-04-28T01:31:45;7.55;;;4.20;;
23670;SDS011;12012;51.998;7.614;2023-04-28T01:34:11;8.23;;;3.78;;
23670;SDS011;12012;51.998;7.614;2023-04-28T01:36:36;7.68;;;4.30;;
23670;SDS011;12012;51.998;7.614;2023-04-28T01:39:02;5.88;;;3.78;;
23670;SDS011;12012;51.998;7.614;2023-04-28T01:41:28;7.28;;;4.30;;
23670;SDS011;12012;51.998;7.614;2023-04-28T01:43:54;6.50;;;3.80;;
23670;SDS011;12012;51.998;7.614;2023-04-28T01:46:19;6.55;;;4.20;;
23670;SDS011;12012;51.998;7.614;2023-04-28T01:48:45;7.53;;;4.70;;
23670;SDS011;12012;51.998;7.614;2023-04-28T01:51:11;6.88;;;4.43;;
23670;SDS011;12012;51.998;7.614;2023-04-28T01:53:37;6.90;;;4.28;;
23670;SDS011;12012;51.998;7.614;2023-04-28T01:56:02;7.00;;;4.22;;
23670;SDS011;12012;51.998;7.614;2023-04-28T01:58:28;7.35;;;4.28;;
23670;SDS011;12012;51.998;7.614;2023-04-28T02:00:54;8.02;;;4.75;;
23670;SDS011;12012;51.998;7.614;2023-04-28T02:03:19;9.65;;;4.40;;
23670;SDS011;12012;51.998;7.614;2023-04-28T02:05:45;7.78;;;4.57;;
23670;SDS011;12012;51.998;7.614;2023-04-28T02:08:11;7.72;;;4.78;;
23670;SDS011;12012;51.998;7.614;2023-04-28T02:10:36;9.45;;;4.18;;
23670;SDS011;12012;51.998;7.614;2023-04-28T02:13:02;7.90;;;4.28;;
23670;SDS011;12012;51.998;7.614;2023-04-28T02:15:27;7.82;;;4.32;;
23670;SDS011;12012;51.998;7.614;2023-04-28T02:17:53;7.25;;;4.65;;
23670;SDS011;12012;51.998;7.614;2023-04-28T02:20:19;6.70;;;4.43;;
23670;SDS011;12012;51.998;7.614;2023-04-28T02:22:44;9.05;;;4.97;;
23670;SDS011;12012;51.998;7.614;2023-04-28T02:25:10;5.95;;;3.80;;
23670;SDS011;12012;51.998;7.614;2023-04-28T02:27:36;10.25;;;5.15;;
23670;SDS011;12012;51.998;7.614;2023-04-28T02:30:03;10.23;;;5.00;;
23670;SDS011;12012;51.998;7.614;2023-04-28T02:32:29;7.90;;;4.25;;
23670;SDS011;12012;51.998;7.614;2023-04-28T02:34:55;6.50;;;4.47;;
23670;SDS011;12012;51.998;7.614;2023-04-28T02:37:21;7.07;;;4.63;;
23670;SDS011;12012;51.998;7.614;2023-04-28T02:39:46;11.40;;;5.30;;
23670;SDS011;12012;51.998;7.614;2023-04-28T02:42:12;8.00;;;4.90;;
23670;SDS011;12012;51.998;7.614;2023-04-28T02:44:38;7.05;;;4.65;;
23670;SDS011;12012;51.998;7.614;2023-04-28T02:47:03;9.07;;;4.25;;
23670;SDS011;12012;51.998;7.614;2023-04-28T02:49:29;9.80;;;4.80;;
23670;SDS011;12012;51.998;7.614;2023-04-28T02:51:55;8.90;;;4.85;;
23670;SDS011;12012;51.998;7.614;2023-04-28T02:54:20;5.05;;;3.85;;
23670;SDS011;12012;51.998;7.614;2023-04-28T02:56:54;6.35;;;4.85;;
23670;SDS011;12012;51.998;7.614;2023-04-28T02:59:21;7.20;;;4.88;;
23670;SDS011;12012;51.998;7.614;2023-04-28T03:01:48;7.80;;;4.70;;
23670;SDS011;12012;51.998;7.614;2023-04-28T03:04:14;7.45;;;4.50;;
23670;SDS011;12012;51.998;7.614;2023-04-28T03:06:40;7.38;;;4.38;;
23670;SDS011;12012;51.998;7.614;2023-04-28T03:09:06;7.55;;;4.70;;
23670;SDS011;12012;51.998;7.614;2023-04-28T03:11:32;11.00;;;5.03;;
23670;SDS011;12012;51.998;7.614;2023-04-28T03:13:58;7.45;;;4.25;;
23670;SDS011;12012;51.998;7.614;2023-04-28T03:16:24;6.30;;;4.43;;
23670;SDS011;12012;51.998;7.614;2023-04-28T03:18:49;7.13;;;3.95;;
23670;SDS011;12012;51.998;7.614;2023-04-28T03:21:15;7.93;;;4.65;;
23670;SDS011;12012;51.998;7.614;2023-04-28T03:23:40;7.32;;;4.20;;
23670;SDS011;12012;51.998;7.614;2023-04-28T03:26:06;9.80;;;4.50;;
23670;SDS011;12012;51.998;7.614;2023-04-28T03:28:32;7.03;;;4.30;;
23670;SDS011;12012;51.998;7.614;2023-04-28T03:30:57;8.00;;;4.75;;
23670;SDS011;12012;51.998;7.614;2023-04-28T03:33:23;6.80;;;4.32;;
23670;SDS011;12012;51.998;7.614;2023-04-28T03:35:48;10.85;;;5.32;;
23670;SDS011;12012;51.998;7.614;2023-04-28T03:38:14;6.97;;;5.40;;
23670;SDS011;12012;51.998;7.614;2023-04-28T03:40:40;8.85;;;4.80;;
23670;SDS011;12012;51.998;7.614;2023-04-28T03:43:05;12.40;;;6.20;;
23670;SDS011;12012;51.998;7.614;2023-04-28T03:45:31;8.48;;;5.38;;
23670;SDS011;12012;51.998;7.614;2023-04-28T03:47:57;10.30;;;6.05;;
23670;SDS011;12012;51.998;7.614;2023-04-28T03:50:23;6.40;;;4.70;;
23670;SDS011;12012;51.998;7.614;2023-04-28T03:52:48;9.25;;;5.25;;
23670;SDS011;12012;51.998;7.614;2023-04-28T03:55:14;6.15;;;5.00;;
23670;SDS011;12012;51.998;7.614;2023-04-28T03:57:40;7.03;;;5.82;;
23670;SDS011;12012;51.998;7.614;2023-04-28T04:00:06;8.98;;;5.18;;
23670;SDS011;12012;51.998;7.614;2023-04-28T04:02:32;9.38;;;5.43;;
23670;SDS011;12012;51.998;7.614;2023-04-28T04:04:57;10.05;;;6.13;;
23670;SDS011;12012;51.998;7.614;2023-04-28T04:07:23;6.65;;;5.07;;
23670;SDS011;12012;51.998;7.614;2023-04-28T04:09:48;6.70;;;5.20;;
23670;SDS011;12012;51.998;7.614;2023-04-28T04:12:14;9.90;;;6.35;;
23670;SDS011;12012;51.998;7.614;2023-04-28T04:14:39;13.20;;;6.93;;
23670;SDS011;12012;51.998;7.614;2023-04-28T04:17:05;7.97;;;5.65;;
23670;SDS011;12012;51.998;7.614;2023-04-28T04:19:31;7.18;;;5.00;;
23670;SDS011;12012;51.998;7.614;2023-04-28T04:21:57;8.38;;;5.93;;
23670;SDS011;12012;51.998;7.614;2023-04-28T04:24:22;12.05;;;5.95;;
23670;SDS011;12012;51.998;7.614;2023-04-28T04:26:48;13.68;;;7.38;;
23670;SDS011;12012;51.998;7.614;2023-04-28T04:29:13;7.55;;;5.43;;
23670;SDS011;12012;51.998;7.614;2023-04-28T04:31:39;10.20;;;6.50;;
23670;SDS011;12012;51.998;7.614;2023-04-28T04:34:04;9.52;;;6.45;;
23670;SDS011;12012;51.998;7.614;2023-04-28T04:36:30;7.80;;;5.20;;
23670;SDS011;12012;51.998;7.614;2023-04-28T04:38:56;9.52;;;5.32;;
23670;SDS011;12012;51.998;7.614;2023-04-28T04:41:22;10.65;;;5.93;;
23670;SDS011;12012;51.998;7.614;2023-04-28T04:43:49;11.23;;;6.93;;
23670;SDS011;12012;51.998;7.614;2023-04-28T04:46:15;11.65;;;6.20;;
23670;SDS011;12012;51.998;7.614;2023-04-28T04:48:41;11.15;;;6.18;;
23670;SDS011;12012;51.998;7.614;2023-04-28T04:51:07;12.93;;;6.90;;
23670;SDS011;12012;51.998;7.614;2023-04-28T04:53:32;7.68;;;6.20;;
23670;SDS011;12012;51.998;7.614;2023-04-28T04:55:58;11.02;;;6.70;;
23670;SDS011;12012;51.998;7.614;2023-04-28T04:58:24;11.27;;;6.85;;
23670;SDS011;12012;51.998;7.614;2023-04-28T05:00:50;11.40;;;6.63;;
23670;SDS011;12012;51.998;7.614;2023-04-28T05:03:15;10.35;;;6.70;;
23670;SDS011;12012;51.998;7.614;2023-04-28T05:05:41;11.30;;;7.30;;
23670;SDS011;12012;51.998;7.614;2023-04-28T05:08:07;10.13;;;6.25;;
23670;SDS011;12012;51.998;7.614;2023-04-28T05:10:32;11.40;;;6.53;;
23670;SDS011;12012;51.998;7.614;2023-04-28T05:12:58;10.60;;;6.07;;
23670;SDS011;12012;51.998;7.614;2023-04-28T05:15:23;7.70;;;6.00;;
23670;SDS011;12012;51.998;7.614;2023-04-28T05:17:49;10.00;;;6.93;;
23670;SDS011;12012;51.998;7.614;2023-04-28T05:20:15;11.07;;;6.47;;
23670;SDS011;12012;51.998;7.614;2023-04-28T05:22:40;14.75;;;8.40;;
23670;SDS011;12012;51.998;7.614;2023-04-28T05:25:06;13.73;;;7.60;;
23670;SDS011;12012;51.998;7.614;2023-04-28T05:27:32;11.05;;;7.28;;
23670;SDS011;12012;51.998;7.614;2023-04-28T05:29:57;11.38;;;6.60;;
23670;SDS011;12012;51.998;7.614;2023-04-28T05:32:23;11.02;;;7.32;;
23670;SDS011;12012;51.998;7.614;2023-04-28T05:34:49;17.77;;;9.10;;
23670;SDS011;12012;51.998;7.614;2023-04-28T05:37:15;11.18;;;7.07;;
23670;SDS011;12012;51.998;7.614;2023-04-28T05:39:40;13.23;;;8.35;;
23670;SDS011;12012;51.998;7.614;2023-04-28T05:42:06;14.55;;;6.95;;
23670;SDS011;12012;51.998;7.614;2023-04-28T05:44:32;11.35;;;7.82;;
23670;SDS011;12012;51.998;7.614;2023-04-28T05:46:57;10.60;;;7.18;;
23670;SDS011;12012;51.998;7.614;2023-04-28T05:49:23;12.45;;;7.20;;
23670;SDS011;12012;51.998;7.614;2023-04-28T05:51:48;8.50;;;6.25;;
23670;SDS011;12012;51.998;7.614;2023-04-28T05:54:14;12.20;;;7.13;;
23670;SDS011;12012;51.998;7.614;2023-04-28T05:56:39;10.35;;;7.68;;
23670;SDS011;12012;51.998;7.614;2023-04-28T05:59:05;9.70;;;7.00;;
23670;SDS011;12012;51.998;7.614;2023-04-28T06:01:31;15.95;;;8.82;;
23670;SDS011;12012;51.998;7.614;2023-04-28T06:03:56;11.48;;;8.32;;
23670;SDS011;12012;51.998;7.614;2023-04-28T06:06:22;11.88;;;8.35;;
23670;SDS011;12012;51.998;7.614;2023-04-28T06:08:49;11.13;;;7.57;;
23670;SDS011;12012;51.998;7.614;2023-04-28T06:11:14;15.20;;;9.02;;
23670;SDS011;12012;51.998;7.614;2023-04-28T06:13:40;13.10;;;9.75;;
23670;SDS011;12012;51.998;7.614;2023-04-28T06:16:06;13.30;;;9.35;;
23670;SDS011;12012;51.998;7.614;2023-04-28T06:18:32;14.93;;;9.60;;
23670;SDS011;12012;51.998;7.614;2023-04-28T06:20:58;13.70;;;8.88;;
23670;SDS011;12012;51.998;7.614;2023-04-28T06:23:23;10.57;;;7.63;;
23670;SDS011;12012;51.998;7.614;2023-04-28T06:25:49;9.30;;;6.88;;
23670;SDS011;12012;51.998;7.614;2023-04-28T06:28:15;11.60;;;7.78;;
23670;SDS011;12012;51.998;7.614;2023-04-28T06:30:40;11.85;;;9.05;;
23670;SDS011;12012;51.998;7.614;2023-04-28T06:33:06;11.30;;;8.07;;
23670;SDS011;12012;51.998;7.614;2023-04-28T06:35:31;14.10;;;9.50;;
23670;SDS011;12012;51.998;7.614;2023-04-28T06:38:00;12.55;;;8.93;;
23670;SDS011;12012;51.998;7.614;2023-04-28T06:40:27;7.32;;;5.72;;
23670;SDS011;12012;51.998;7.614;2023-04-28T06:42:53;12.13;;;8.95;;
23670;SDS011;12012;51.998;7.614;2023-04-28T06:45:18;9.63;;;7.13;;
23670;SDS011;12012;51.998;7.614;2023-04-28T06:47:44;12.48;;;8.27;;
23670;SDS011;12012;51.998;7.614;2023-04-28T06:50:09;9.85;;;7.88;;
23670;SDS011;12012;51.998;7.614;2023-04-28T06:52:35;15.43;;;10.85;;
23670;SDS011;12012;51.998;7.614;2023-04-28T06:55:02;19.85;;;10.85;;
23670;SDS011;12012;51.998;7.614;2023-04-28T06:57:29;13.88;;;11.18;;
23670;SDS011;12012;51.998;7.614;2023-04-28T06:59:55;12.00;;;9.00;;
23670;SDS011;12012;51.998;7.614;2023-04-28T07:02:21;15.40;;;9.02;;
23670;SDS011;12012;51.998;7.614;2023-04-28T07:04:46;15.48;;;9.52;;
23670;SDS011;12012;51.998;7.614;2023-04-28T07:07:13;11.25;;;8.15;;
23670;SDS011;12012;51.998;7.614;2023-04-28T07:09:38;12.98;;;8.48;;
23670;SDS011;12012;51.998;7.614;2023-04-28T07:12:04;17.98;;;9.57;;
23670;SDS011;12012;51.998;7.614;2023-04-28T07:14:30;14.98;;;8.60;;
23670;SDS011;12012;51.998;7.614;2023-04-28T07:16:55;17.05;;;11.07;;
23670;SDS011;12012;51.998;7.614;2023-04-28T07:19:21;10.48;;;8.02;;
23670;SDS011;12012;51.998;7.614;2023-04-28T07:21:47;14.05;;;8.35;;
23670;SDS011;12012;51.998;7.614;2023-04-28T07:24:12;13.30;;;8.50;;
23670;SDS011;12012;51.998;7.614;2023-04-28T07:26:38;12.43;;;7.88;;
23670;SDS011;12012;51.998;7.614;2023-04-28T07:29:03;11.60;;;8.95;;
23670;SDS011;12012;51.998;7.614;2023-04-28T07:31:29;12.05;;;9.00;;
23670;SDS011;12012;51.998;7.614;2023-04-28T07:33:55;12.38;;;6.90;;
23670;SDS011;12012;51.998;7.614;2023-04-28T07:36:21;10.93;;;8.52;;
23670;SDS011;12012;51.998;7.614;2023-04-28T07:38:46;9.55;;;7.05;;
23670;SDS011;12012;51.998;7.614;2023-04-28T07:41:12;9.63;;;7.38;;
23670;SDS011;12012;51.998;7.614;2023-04-28T07:43:38;11.40;;;8.52;;
23670;SDS011;12012;51.998;7.614;2023-04-28T07:46:05;11.68;;;7.97;;
23670;SDS011;12012;51.998;7.614;2023-04-28T07:48:32;14.45;;;10.35;;
23670;SDS011;12012;51.998;7.614;2023-04-28T07:50:58;11.48;;;7.53;;
23670;SDS011;12012;51.998;7.614;2023-04-28T07:53:24;10.32;;;7.50;;
23670;SDS011;12012;51.998;7.614;2023-04-28T07:55:49;8.57;;;7.10;;
23670;SDS011;12012;51.998;7.614;2023-04-28T07:58:15;11.80;;;7.18;;
23670;SDS011;12012;51.998;7.614;2023-04-28T08:00:41;13.73;;;8.95;;
23670;SDS011;12012;51.998;7.614;2023-04-28T08:03:06;10.15;;;7.88;;
23670;SDS011;12012;51.998;7.614;2023-04-28T08:05:32;11.10;;;7.70;;
23670;SDS011;12012;51.998;7.614;2023-04-28T08:07:57;11.32;;;8.27;;
23670;SDS011;12012;51.998;7.614;2023-04-28T08:10:23;9.68;;;7.55;;
23670;SDS011;12012;51.998;7.614;2023-04-28T08:12:50;12.10;;;8.55;;
23670;SDS011;12012;51.998;7.614;2023-04-28T08:15:16;14.75;;;9.52;;
23670;SDS011;12012;51.998;7.614;2023-04-28T08:17:42;10.15;;;7.10;;
23670;SDS011;12012;51.998;7.614;2023-04-28T08:20:07;13.20;;;8.15;;
23670;SDS011;12012;51.998;7.614;2023-04-28T08:22:33;14.57;;;10.38;;
23670;SDS011;12012;51.998;7.614;2023-04-28T08:24:59;16.35;;;11.40;;
23670;SDS011;12012;51.998;7.614;2023-04-28T08:27:24;14.82;;;9.85;;
23670;SDS011;12012;51.998;7.614;2023-04-28T08:29:50;16.08;;;10.65;;
23670;SDS011;12012;51.998;7.614;2023-04-28T08:32:16;13.38;;;10.02;;
23670;SDS011;12012;51.998;7.614;2023-04-28T08:34:42;17.77;;;12.27;;
23670;SDS011;12012;51.998;7.614;2023-04-28T08:37:08;21.40;;;13.02;;
23670;SDS011;12012;51.998;7.614;2023-04-28T08:39:33;22.33;;;13.38;;
23670;SDS011;12012;51.998;7.614;2023-04-28T08:42:02;11.00;;;7.65;;
23670;SDS011;12012;51.998;7.614;2023-04-28T08:44:32;12.10;;;7.85;;
23670;SDS011;12012;51.998;7.614;2023-04-28T08:47:11;15.55;;;10.05;;
23670;SDS011;12012;51.998;7.614;2023-04-28T08:49:38;9.68;;;8.35;;
23670;SDS011;12012;51.998;7.614;2023-04-28T08:52:11;15.82;;;13.65;;
23670;SDS011;12012;51.998;7.614;2023-04-28T08:54:40;14.27;;;11.48;;
23670;SDS011;12012;51.998;7.614;2023-04-28T08:57:09;15.50;;;10.32;;
23670;SDS011;12012;51.998;7.614;2023-04-28T08:59:39;17.38;;;11.65;;
23670;SDS011;12012;51.998;7.614;2023-04-28T09:02:06;13.82;;;9.65;;
23670;SDS011;12012;51.998;7.614;2023-04-28T09:04:34;14.52;;;8.48;;
23670;SDS011;12012;51.998;7.614;2023-04-28T09:07:00;11.27;;;8.35;;
23670;SDS011;12012;51.998;7.614;2023-04-28T09:09:27;17.60;;;10.43;;
23670;SDS011;12012;51.998;7.614;2023-04-28T09:11:55;11.88;;;8.85;;
23670;SDS011;12012;51.998;7.614;2023-04-28T09:14:23;11.60;;;8.35;;
23670;SDS011;12012;51.998;7.614;2023-04-28T09:16:50;11.23;;;9.18;;
23670;SDS011;12012;51.998;7.614;2023-04-28T09:19:16;13.05;;;9.60;;
23670;SDS011;12012;51.998;7.614;2023-04-28T09:21:49;16.55;;;9.88;;
23670;SDS011;12012;51.998;7.614;2023-04-28T09:24:26;13.40;;;9.63;;
23670;SDS011;12012;51.998;7.614;2023-04-28T09:27:06;15.07;;;9.02;;
23670;SDS011;12012;51.998;7.614;2023-04-28T09:29:34;10.18;;;9.18;;
23670;SDS011;12012;51.998;7.614;2023-04-28T09:32:13;10.73;;;7.60;;
23670;SDS011;12012;51.998;7.614;2023-04-28T09:34:44;14.98;;;10.55;;
23670;SDS011;12012;51.998;7.614;2023-04-28T09:37:15;11.95;;;8.20;;
23670;SDS011;12012;51.998;7.614;2023-04-28T09:39:45;11.55;;;7.43;;
23670;SDS011;12012;51.998;7.614;2023-04-28T09:45:00;9.98;;;7.80;;
23670;SDS011;12012;51.998;7.614;2023-04-28T09:47:27;9.68;;;7.63;;
23670;SDS011;12012;51.998;7.614;2023-04-28T09:49:55;8.50;;;6.85;;
23670;SDS011;12012;51.998;7.614;2023-04-28T09:52:22;9.40;;;5.97;;
23670;SDS011;12012;51.998;7.614;2023-04-28T09:54:49;10.85;;;7.45;;
23670;SDS011;12012;51.998;7.614;2023-04-28T09:57:16;7.43;;;5.93;;
23670;SDS011;12012;51.998;7.614;2023-04-28T09:59:49;8.25;;;6.70;;
23670;SDS011;12012;51.998;7.614;2023-04-28T10:02:16;11.25;;;8.80;;
23670;SDS011;12012;51.998;7.614;2023-04-28T10:04:48;13.88;;;8.98;;
23670;SDS011;12012;51.998;7.614;2023-04-28T10:07:15;9.85;;;8.70;;
23670;SDS011;12012;51.998;7.614;2023-04-28T10:09:48;7.93;;;5.43;;
23670;SDS011;12012;51.998;7.614;2023-04-28T10:12:21;7.10;;;5.63;;
23670;SDS011;12012;51.998;7.614;2023-04-28T10:14:47;9.95;;;7.80;;
23670;SDS011;12012;51.998;7.614;2023-04-28T10:17:14;10.50;;;7.15;;
23670;SDS011;12012;51.998;7.614;2023-04-28T10:19:42;8.98;;;6.50;;
23670;SDS011;12012;51.998;7.614;2023-04-28T10:24:48;9.02;;;6.25;;
23670;SDS011;12012;51.998;7.614;2023-04-28T10:27:29;8.48;;;6.28;;
23670;SDS011;12012;51.998;7.614;2023-04-28T10:32:41;12.68;;;8.73;;
23670;SDS011;12012;51.998;7.614;2023-04-28T10:40:47;8.38;;;6.40;;
23670;SDS011;12012;51.998;7.614;2023-04-28T10:43:14;11.65;;;8.05;;
23670;SDS011;12012;51.998;7.614;2023-04-28T10:45:58;10.93;;;7.20;;
23670;SDS011;12012;51.998;7.614;2023-04-28T10:56:09;9.85;;;5.90;;
23670;SDS011;12012;51.998;7.614;2023-04-28T10:58:35;9.07;;;7.40;;
23670;SDS011;12012;51.998;7.614;2023-04-28T11:03:48;8.25;;;6.70;;
23670;SDS011;12012;51.998;7.614;2023-04-28T11:19:37;9.15;;;5.72;;
23670;SDS011;12012;51.998;7.614;2023-04-28T11:22:13;8.05;;;6.82;;
23670;SDS011;12012;51.998;7.614;2023-04-28T11:24:40;8.90;;;7.77;;
23670;SDS011;12012;51.998;7.614;2023-04-28T11:27:25;8.73;;;7.82;;
23670;SDS011;12012;51.998;7.614;2023-04-28T11:29:51;8.88;;;7.75;;
23670;SDS011;12012;51.998;7.614;2023-04-28T11:32:19;7.55;;;6.65;;
23670;SDS011;12012;51.998;7.614;2023-04-28T11:34:54;10.13;;;6.70;;
23670;SDS011;12012;51.998;7.614;2023-04-28T11:37:19;11.60;;;9.02;;
23670;SDS011;12012;51.998;7.614;2023-04-28T11:39:45;8.73;;;7.93;;
23670;SDS011;12012;51.998;7.614;2023-04-28T11:42:11;10.02;;;8.38;;
23670;SDS011;12012;51.998;7.614;2023-04-28T11:44:37;9.63;;;8.73;;
23670;SDS011;12012;51.998;7.614;2023-04-28T11:47:03;8.70;;;7.45;;
23670;SDS011;12012;51.998;7.614;2023-04-28T11:49:30;6.63;;;5.75;;
23670;SDS011;12012;51.998;7.614;2023-04-28T11:52:06;11.02;;;8.23;;
23670;SDS011;12012;51.998;7.614;2023-04-28T11:54:33;8.60;;;7.72;;
23670;SDS011;12012;51.998;7.614;2023-04-28T11:56:59;7.90;;;6.70;;
23670;SDS011;12012;51.998;7.614;2023-04-28T11:59:29;10.20;;;9.20;;
23670;SDS011;12012;51.998;7.614;2023-04-28T12:01:56;10.45;;;9.45;;
23670;SDS011;12012;51.998;7.614;2023-04-28T12:07:11;10.45;;;8.90;;
23670;SDS011;12012;51.998;7.614;2023-04-28T12:09:39;11.55;;;10.13;;
23670;SDS011;12012;51.998;7.614;2023-04-28T12:12:10;10.60;;;8.88;;
23670;SDS011;12012;51.998;7.614;2023-04-28T12:15:22;11.93;;;10.73;;
23670;SDS011;12012;51.998;7.614;2023-04-28T12:17:30;11.93;;;10.77;;
23670;SDS011;12012;51.998;7.614;2023-04-28T12:20:00;12.40;;;11.15;;
23670;SDS011;12012;51.998;7.614;2023-04-28T12:22:27;10.05;;;7.90;;
23670;SDS011;12012;51.998;7.614;2023-04-28T12:25:03;11.70;;;10.57;;
23670;SDS011;12012;51.998;7.614;2023-04-28T12:27:34;14.65;;;12.80;;
23670;SDS011;12012;51.998;7.614;2023-04-28T12:30:02;10.43;;;8.88;;
23670;SDS011;12012;51.998;7.614;2023-04-28T12:32:41;11.13;;;9.00;;
23670;SDS011;12012;51.998;7.614;2023-04-28T12:35:09;14.35;;;12.90;;
23670;SDS011;12012;51.998;7.614;2023-04-28T12:37:35;14.30;;;12.20;;
23670;SDS011;12012;51.998;7.614;2023-04-28T12:40:02;17.50;;;11.55;;
23670;SDS011;12012;51.998;7.614;2023-04-28T12:42:29;16.08;;;12.90;;
23670;SDS011;12012;51.998;7.614;2023-04-28T12:44:54;15.93;;;13.13;;
23670;SDS011;12012;51.998;7.614;2023-04-28T12:47:20;18.13;;;14.52;;
23670;SDS011;12012;51.998;7.614;2023-04-28T12:49:46;11.63;;;10.43;;
23670;SDS011;12012;51.998;7.614;2023-04-28T12:52:14;17.42;;;11.98;;
23670;SDS011;12012;51.998;7.614;2023-04-28T12:54:40;17.27;;;14.25;;
23670;SDS011;12012;51.998;7.614;2023-04-28T12:57:11;18.08;;;14.85;;
23670;SDS011;12012;51.998;7.614;2023-04-28T12:59:37;13.40;;;11.60;;
23670;SDS011;12012;51.998;7.614;2023-04-28T13:02:03;19.42;;;15.10;;
23670;SDS011;12012;51.998;7.614;2023-04-28T13:04:29;16.55;;;14.75;;
23670;SDS011;12012;51.998;7.614;2023-04-28T13:06:55;16.95;;;15.25;;
23670;SDS011;12012;51.998;7.614;2023-04-28T13:09:23;12.32;;;11.05;;
23670;SDS011;12012;51.998;7.614;2023-04-28T13:11:49;16.60;;;14.90;;
23670;SDS011;12012;51.998;7.614;2023-04-28T13:14:17;20.83;;;16.67;;
23670;SDS011;12012;51.998;7.614;2023-04-28T13:16:43;17.75;;;15.13;;
23670;SDS011;12012;51.998;7.614;2023-04-28T13:19:09;13.45;;;11.80;;
23670;SDS011;12012;51.998;7.614;2023-04-28T13:21:37;17.75;;;14.98;;
23670;SDS011;12012;51.998;7.614;2023-04-28T13:24:05;18.85;;;16.13;;
23670;SDS011;12012;51.998;7.614;2023-04-28T13:26:31;18.05;;;14.55;;
23670;SDS011;12012;51.998;7.614;2023-04-28T13:28:57;17.30;;;15.57;;
23670;SDS011;12012;51.998;7.614;2023-04-28T13:31:23;24.52;;;17.48;;
23670;SDS011;12012;51.998;7.614;2023-04-28T13:33:49;14.80;;;13.18;;
23670;SDS011;12012;51.998;7.614;2023-04-28T13:36:15;16.08;;;13.93;;
23670;SDS011;12012;51.998;7.614;2023-04-28T13:38:40;18.20;;;16.40;;
23670;SDS011;12012;51.998;7.614;2023-04-28T13:41:09;17.55;;;15.75;;
23670;SDS011;12012;51.998;7.614;2023-04-28T13:43:34;18.77;;;16.77;;
23670;SDS011;12012;51.998;7.614;2023-04-28T13:46:00;19.95;;;17.75;;
23670;SDS011;12012;51.998;7.614;2023-04-28T13:48:25;20.40;;;18.40;;
23670;SDS011;12012;51.998;7.614;2023-04-28T13:50:52;20.10;;;18.10;;
23670;SDS011;12012;51.998;7.614;2023-04-28T13:53:18;21.45;;;19.20;;
23670;SDS011;12012;51.998;7.614;2023-04-28T13:55:44;23.58;;;20.23;;
23670;SDS011;12012;51.998;7.614;2023-04-28T13:58:09;22.95;;;20.65;;
23670;SDS011;12012;51.998;7.614;2023-04-28T14:00:35;23.40;;;21.00;;
23670;SDS011;12012;51.998;7.614;2023-04-28T14:03:01;25.80;;;22.92;;
23670;SDS011;12012;51.998;7.614;2023-04-28T14:05:27;25.27;;;22.58;;
23670;SDS011;12012;51.998;7.614;2023-04-28T14:07:53;27.33;;;24.42;;
23670;SDS011;12012;51.998;7.614;2023-04-28T14:10:20;28.00;;;25.00;;
23670;SDS011;12012;51.998;7.614;2023-04-28T14:12:46;25.65;;;21.80;;
23670;SDS011;12012;51.998;7.614;2023-04-28T14:15:13;25.35;;;22.65;;
23670;SDS011;12012;51.998;7.614;2023-04-28T14:17:39;23.23;;;20.70;;
23670;SDS011;12012;51.998;7.614;2023-04-28T14:20:05;22.10;;;19.88;;
23670;SDS011;12012;51.998;7.614;2023-04-28T14:22:32;22.92;;;20.38;;
23670;SDS011;12012;51.998;7.614;2023-04-28T14:24:57;20.85;;;18.73;;
23670;SDS011;12012;51.998;7.614;2023-04-28T14:27:23;21.92;;;19.63;;
23670;SDS011;12012;51.998;7.614;2023-04-28T14:29:48;22.15;;;19.98;;
23670;SDS011;12012;51.998;7.614;2023-04-28T14:32:14;20.00;;;18.10;;
23670;SDS011;12012;51.998;7.614;2023-04-28T14:34:40;22.00;;;19.75;;
23670;SDS011;12012;51.998;7.614;2023-04-28T14:37:06;20.55;;;18.30;;
23670;SDS011;12012;51.998;7.614;2023-04-28T14:39:33;24.58;;;22.05;;
23670;SDS011;12012;51.998;7.614;2023-04-28T14:41:58;19.00;;;17.00;;
23670;SDS011;12012;51.998;7.614;2023-04-28T14:44:24;22.88;;;20.67;;
23670;SDS011;12012;51.998;7.614;2023-04-28T14:46:50;22.65;;;20.35;;
23670;SDS011;12012;51.998;7.614;2023-04-28T14:49:15;25.75;;;23.05;;
23670;SDS011;12012;51.998;7.614;2023-04-28T14:51:41;23.20;;;20.85;;
23670;SDS011;12012;51.998;7.614;2023-04-28T14:54:07;25.25;;;22.63;;
23670;SDS011;12012;51.998;7.614;2023-04-28T14:56:33;24.25;;;21.38;;
23670;SDS011;12012;51.998;7.614;2023-04-28T14:58:59;23.55;;;21.15;;
23670;SDS011;12012;51.998;7.614;2023-04-28T15:01:24;22.35;;;20.15;;
23670;SDS011;12012;51.998;7.614;2023-04-28T15:03:50;21.65;;;19.50;;
23670;SDS011;12012;51.998;7.614;2023-04-28T15:06:16;22.23;;;19.92;;
23670;SDS011;12012;51.998;7.614;2023-04-28T15:08:41;21.23;;;18.50;;
23670;SDS011;12012;51.998;7.614;2023-04-28T15:11:07;21.70;;;18.55;;
23670;SDS011;12012;51.998;7.614;2023-04-28T15:13:33;20.48;;;18.05;;